Time;durP1;ratioP1;P1;durP2;ratioP2;P2;SDS_P1;SDS_P2;PMS_P1;PMS_P2;Temp;Humidity;BMP_temperature;BMP_pressure;BME280_temperature;BME280_humidity;BME280_pressure;Samples;Min_cycle;Max_cycle;Signal;HPM_P1;HPM_P2
2023/04/21 00:01:49;;;;;;;573.80;49.63;;;2.80;1.00;3.40;93597.00;;;;7400199;19;20204;-76
2023/04/21 00:04:18;;;;;;;725.93;54.53;;;2.80;1.00;3.50;93594.00;;;;7399187;19;20831;-76
2023/04/21 00:06:52;;;;;;;707.93;54.40;;;2.80;1.00;3.50;93536.00;;;;7400865;19;20152;-77
2023/04/21 00:09:20;;;;;;;886.97;64.50;;;2.80;1.00;3.30;93594.00;;;;7403145;19;20145;-76
2023/04/21 00:12:00;;;;;;;832.90;54.00;;;2.70;1.00;3.40;93573.00;;;;7400486;19;20515;-79
2023/04/21 00:14:34;;;;;;;518.03;44.47;;;2.70;1.00;3.40;93555.00;;;;7401119;19;20216;-77
2023/04/21 00:17:11;;;;;;;695.77;56.63;;;2.70;1.00;3.50;93585.00;;;;7402908;19;20177;-77
2023/04/21 00:19:44;;;;;;;356.50;38.80;;;2.70;1.00;3.50;93554.00;;;;7403173;19;20131;-78
2023/04/21 00:22:13;;;;;;;407.20;44.07;;;2.80;1.00;3.50;93564.00;;;;7401060;19;20136;-78
2023/04/21 00:24:41;;;;;;;466.93;47.07;;;2.80;1.00;3.50;93559.00;;;;7403187;19;20599;-79
2023/04/21 00:27:15;;;;;;;614.37;53.73;;;2.80;1.00;3.40;93569.00;;;;7401686;19;20204;-78
2023/04/21 00:29:48;;;;;;;602.70;54.10;;;2.80;1.00;3.40;93552.00;;;;7401763;19;20204;-78
2023/04/21 00:32:22;;;;;;;856.37;60.43;;;2.80;1.00;3.40;93553.00;;;;7401015;19;20157;-80
2023/04/21 00:34:56;;;;;;;658.70;53.33;;;2.80;1.00;3.50;93538.00;;;;7400806;19;20564;-78
2023/04/21 00:37:31;;;;;;;695.83;56.07;;;2.70;1.00;3.30;93587.00;;;;7401052;19;20131;-78
2023/04/21 00:40:06;;;;;;;629.63;58.90;;;2.80;1.00;3.40;93563.00;;;;7400697;19;20477;-77
2023/04/21 00:42:40;;;;;;;598.57;55.50;;;2.70;1.00;3.30;93558.00;;;;7400561;19;20150;-80
2023/04/21 00:45:14;;;;;;;476.13;43.83;;;2.70;1.00;3.40;93554.00;;;;7401523;19;20148;-78
2023/04/21 00:47:51;;;;;;;352.77;35.73;;;2.70;1.00;3.40;93567.00;;;;7399661;19;20230;-77
2023/04/21 00:50:18;;;;;;;355.40;35.83;;;2.60;1.00;3.30;93561.00;;;;7400320;19;20172;-78
2023/04/21 00:52:54;;;;;;;261.57;33.17;;;2.60;1.00;3.10;93540.00;;;;7400324;19;20140;-78
2023/04/21 00:55:30;;;;;;;284.20;34.73;;;2.50;1.00;3.10;93523.00;;;;7401679;19;20620;-77
2023/04/21 00:58:04;;;;;;;186.77;30.13;;;2.50;1.00;3.00;93543.00;;;;7392289;19;20588;-77
2023/04/21 01:00:43;;;;;;;178.67;30.67;;;2.40;1.00;2.90;93522.00;;;;7396945;19;20850;-77
2023/04/21 01:03:16;;;;;;;173.67;30.43;;;2.30;1.00;2.90;93531.00;;;;7399091;19;20173;-79
2023/04/21 01:05:44;;;;;;;243.77;34.80;;;2.30;1.00;3.00;93534.00;;;;7401852;19;20193;-78
2023/04/21 01:08:12;;;;;;;128.20;28.17;;;2.20;1.00;2.90;93509.00;;;;7399459;19;20226;-78
2023/04/21 01:10:58;;;;;;;75.97;23.40;;;2.20;1.00;2.80;93516.00;;;;7397861;19;20515;-76
2023/04/21 01:13:32;;;;;;;76.80;24.70;;;2.10;1.00;2.70;93548.00;;;;7401448;19;20129;-80
2023/04/21 01:16:07;;;;;;;72.27;23.93;;;2.00;1.00;2.60;93558.00;;;;7399463;19;20518;-78
2023/04/21 01:18:35;;;;;;;74.93;24.30;;;1.90;1.00;2.60;93549.00;;;;7399214;19;20642;-79
2023/04/21 01:21:10;;;;;;;66.87;25.03;;;1.90;1.00;2.50;93545.00;;;;7401071;19;20492;-79
2023/04/21 01:23:43;;;;;;;80.77;26.83;;;1.80;1.00;2.50;93552.00;;;;7400205;19;20603;-79
2023/04/21 01:26:22;;;;;;;88.83;26.00;;;1.80;1.00;2.40;93548.00;;;;7399514;19;20144;-78
2023/04/21 01:28:49;;;;;;;94.13;27.80;;;1.80;1.00;2.30;93561.00;;;;7399142;19;20136;-79
2023/04/21 01:31:23;;;;;;;189.47;34.27;;;1.80;1.00;2.40;93543.00;;;;7400843;19;20133;-78
2023/04/21 01:33:56;;;;;;;349.87;42.50;;;1.80;1.00;2.40;93500.00;;;;7397585;19;20152;-78
2023/04/21 01:36:30;;;;;;;544.73;46.47;;;1.80;1.00;2.50;93538.00;;;;7399831;19;20147;-78
2023/04/21 01:39:04;;;;;;;670.37;56.47;;;1.90;1.00;2.70;93476.00;;;;7398477;19;20177;-79
2023/04/21 01:41:38;;;;;;;416.77;42.67;;;1.90;1.00;2.60;93550.00;;;;7400831;19;20128;-79
2023/04/21 01:44:11;;;;;;;592.17;50.17;;;1.90;1.00;2.50;93484.00;;;;7398663;19;20125;-81
2023/04/21 01:46:45;;;;;;;573.50;51.93;;;1.80;1.00;2.50;93542.00;;;;7398550;19;20125;-79
2023/04/21 01:49:18;;;;;;;635.17;55.07;;;1.80;1.00;2.50;93525.00;;;;7398998;19;20140;-78
2023/04/21 01:51:46;;;;;;;341.83;34.90;;;1.80;1.00;2.50;93538.00;;;;7399825;19;20666;-78
2023/04/21 01:54:20;;;;;;;436.03;41.57;;;1.80;1.00;2.40;93539.00;;;;7398039;19;20135;-79
2023/04/21 01:56:47;;;;;;;666.93;50.93;;;1.70;1.00;2.30;93526.00;;;;7399139;19;20145;-77
2023/04/21 01:59:21;;;;;;;737.60;55.63;;;1.70;1.00;2.40;93529.00;;;;7394557;19;20497;-78
2023/04/21 02:01:48;;;;;;;832.00;59.33;;;1.70;1.00;2.50;93551.00;;;;7396712;19;20263;-77
2023/04/21 02:04:24;;;;;;;651.77;51.37;;;1.70;1.00;2.40;93556.00;;;;7395819;19;20136;-78
2023/04/21 02:06:58;;;;;;;479.93;41.50;;;1.70;1.00;2.40;93503.00;;;;7396649;19;20160;-79
2023/04/21 02:09:31;;;;;;;641.83;54.90;;;1.70;1.00;2.30;93552.00;;;;7401144;19;20136;-79
2023/04/21 02:12:13;;;;;;;466.00;39.80;;;1.70;1.00;2.30;93530.00;;;;7397460;19;20215;-80
2023/04/21 02:14:53;;;;;;;691.40;53.67;;;1.60;1.00;2.30;93554.00;;;;7398900;19;20192;-79
2023/04/21 02:17:20;;;;;;;390.73;39.37;;;1.60;1.00;2.30;93552.00;;;;7395498;19;20149;-79
2023/04/21 02:19:54;;;;;;;409.93;39.77;;;1.60;1.00;2.30;93555.00;;;;7399422;19;20137;-79
2023/04/21 02:22:31;;;;;;;515.47;43.47;;;1.60;1.00;2.30;93548.00;;;;7398986;19;20472;-79
2023/04/21 02:25:07;;;;;;;635.03;50.80;;;1.60;1.00;2.20;93552.00;;;;7395100;19;20544;-78
2023/04/21 02:27:35;;;;;;;193.10;29.43;;;1.60;1.00;2.20;93549.00;;;;7398258;19;20636;-78
2023/04/21 02:30:09;;;;;;;406.13;40.80;;;1.60;1.00;2.10;93543.00;;;;7398695;19;20132;-79
2023/04/21 02:32:36;;;;;;;284.93;37.03;;;1.50;1.00;2.00;93521.00;;;;7398843;19;20140;-80
2023/04/21 02:35:11;;;;;;;76.00;22.53;;;1.40;1.00;2.00;93506.00;;;;7396447;19;20145;-79
2023/04/21 02:37:44;;;;;;;65.30;23.73;;;1.30;1.40;1.80;93543.00;;;;7397799;19;20133;-79
2023/04/21 02:40:13;;;;;;;58.30;21.90;;;1.20;99.90;1.90;93499.00;;;;7398207;19;20609;-79
2023/04/21 02:42:40;;;;;;;59.60;23.17;;;1.20;99.90;1.70;93547.00;;;;7398631;19;20136;-79
2023/04/21 02:45:15;;;;;;;94.97;25.23;;;1.10;99.90;1.50;93568.00;;;;7394769;19;20173;-79
2023/04/21 02:47:42;;;;;;;83.10;22.60;;;1.00;99.90;1.40;93511.00;;;;7397711;19;20173;-79
2023/04/21 02:50:16;;;;;;;130.40;27.10;;;0.90;99.90;1.50;93554.00;;;;7398957;19;20213;-78
2023/04/21 02:52:43;;;;;;;92.77;25.03;;;0.80;99.90;1.20;93549.00;;;;7396926;19;20125;-78
2023/04/21 02:55:21;;;;;;;57.60;20.57;;;0.70;99.90;1.10;93549.00;;;;7398340;19;20501;-79
2023/04/21 02:57:55;;;;;;;51.37;19.67;;;0.50;99.90;1.20;93550.00;;;;7394855;19;20152;-78
2023/04/21 03:00:29;;;;;;;52.43;20.00;;;0.50;99.90;1.20;93541.00;;;;7397372;19;20582;-79
2023/04/21 03:02:56;;;;;;;46.10;18.53;;;0.60;99.90;1.20;93543.00;;;;7395665;19;20446;-79
2023/04/21 03:05:24;;;;;;;53.20;20.43;;;0.60;99.90;1.30;93539.00;;;;7398432;19;20469;-79
2023/04/21 03:07:59;;;;;;;41.60;17.67;;;0.60;99.90;1.50;93544.00;;;;7397128;19;20140;-78
2023/04/21 03:10:32;;;;;;;47.57;19.37;;;0.70;99.90;1.50;93494.00;;;;7396728;19;20479;-79
2023/04/21 03:13:12;;;;;;;44.07;19.80;;;0.80;99.90;1.40;93547.00;;;;7395856;19;20153;-78
2023/04/21 03:15:39;;;;;;;41.00;18.10;;;0.90;99.90;1.50;93544.00;;;;7395995;19;20169;-77
2023/04/21 03:18:12;;;;;;;41.07;18.43;;;0.90;99.90;1.60;93544.00;;;;7404360;19;20162;-78
2023/04/21 03:20:45;;;;;;;39.73;18.10;;;1.00;99.90;1.70;93513.00;;;;7404894;19;20624;-77
2023/04/21 03:23:20;;;;;;;40.13;17.03;;;1.10;99.90;1.80;93529.00;;;;7404883;19;20594;-77
2023/04/21 03:25:47;;;;;;;47.30;18.87;;;1.20;99.90;1.80;93530.00;;;;7404762;19;20137;-78
2023/04/21 03:28:21;;;;;;;44.00;17.93;;;1.20;99.90;1.90;93523.00;;;;7405251;19;20153;-78
2023/04/21 03:30:55;;;;;;;42.13;18.03;;;1.20;99.90;1.80;93525.00;;;;7404338;19;20168;-80
2023/04/21 03:33:28;;;;;;;41.10;18.67;;;1.20;99.90;1.80;93520.00;;;;7405080;19;20121;-79
2023/04/21 03:35:56;;;;;;;48.87;19.27;;;1.20;99.90;1.80;93468.00;;;;7403336;19;20588;-78
2023/04/21 03:38:32;;;;;;;40.97;18.90;;;1.20;99.90;1.80;93528.00;;;;7402266;19;20148;-78
2023/04/21 03:41:06;;;;;;;34.67;16.40;;;1.20;99.90;1.80;93481.00;;;;7404223;19;20129;-77
2023/04/21 03:43:35;;;;;;;43.87;18.23;;;1.20;99.90;1.80;93502.00;;;;7404012;19;20140;-76
2023/04/21 03:46:19;;;;;;;37.47;17.67;;;1.20;99.90;1.90;93458.00;;;;7403265;19;20468;-77
2023/04/21 03:48:47;;;;;;;41.13;18.37;;;1.30;99.90;1.90;93519.00;;;;7402469;19;20147;-77
2023/04/21 03:51:20;;;;;;;35.00;17.17;;;1.30;99.90;1.90;93524.00;;;;7402210;19;20153;-79
2023/04/21 03:53:47;;;;;;;37.43;17.37;;;1.30;99.90;1.80;93498.00;;;;7404604;19;20284;-78
2023/04/21 03:56:14;;;;;;;38.63;16.97;;;1.30;99.90;1.90;93517.00;;;;7400670;19;20212;-78
2023/04/21 03:58:51;;;;;;;34.43;16.60;;;1.30;99.90;1.70;93456.00;;;;7399517;19;20583;-78
2023/04/21 04:01:18;;;;;;;34.10;15.37;;;1.30;99.90;1.90;93475.00;;;;7401324;19;20125;-78
2023/04/21 04:03:52;;;;;;;28.37;14.83;;;1.30;1.00;2.00;93526.00;;;;7398308;19;20635;-77
2023/04/21 04:06:30;;;;;;;30.47;14.53;;;1.30;99.90;2.10;93511.00;;;;7402000;19;20223;-78
2023/04/21 04:09:07;;;;;;;34.30;15.50;;;1.40;1.00;2.10;93511.00;;;;7400783;19;20135;-78
2023/04/21 04:11:36;;;;;;;32.83;14.57;;;1.50;1.00;2.10;93461.00;;;;7402189;19;20600;-78
2023/04/21 04:14:16;;;;;;;28.30;14.67;;;1.50;1.00;2.10;93498.00;;;;7401985;19;20136;-77
2023/04/21 04:16:50;;;;;;;24.73;11.97;;;1.50;1.00;2.20;93500.00;;;;7403144;19;20572;-77
2023/04/21 04:19:30;;;;;;;21.57;12.10;;;1.60;1.00;2.20;93506.00;;;;7403496;19;20137;-78
2023/04/21 04:22:03;;;;;;;19.13;12.17;;;1.60;1.00;2.30;93517.00;;;;7400695;19;20129;-76
2023/04/21 04:24:32;;;;;;;28.57;13.20;;;1.70;1.00;2.40;93523.00;;;;7398311;19;20121;-77
2023/04/21 04:27:06;;;;;;;25.07;13.37;;;1.70;1.00;2.40;93524.00;;;;7400600;19;20129;-79
2023/04/21 04:29:34;;;;;;;24.03;12.60;;;1.70;1.00;2.40;93473.00;;;;7401128;19;20137;-78
2023/04/21 04:32:09;;;;;;;23.30;12.80;;;1.70;1.00;2.40;93520.00;;;;7401477;19;20133;-77
2023/04/21 04:34:37;;;;;;;23.33;12.17;;;1.70;1.00;2.30;93514.00;;;;7400718;19;20129;-77
2023/04/21 04:37:20;;;;;;;25.13;13.60;;;1.60;1.00;2.30;93494.00;;;;7400916;19;20136;-78
2023/04/21 04:39:55;;;;;;;22.50;11.60;;;1.60;1.00;2.20;93472.00;;;;7400747;19;20644;-78
2023/04/21 04:42:28;;;;;;;21.70;11.70;;;1.60;1.00;2.40;93511.00;;;;7400037;19;20160;-78
2023/04/21 04:44:56;;;;;;;23.00;11.73;;;1.70;1.00;2.50;93445.00;;;;7396255;19;20144;-77
2023/04/21 04:47:30;;;;;;;20.57;10.47;;;1.70;1.00;2.50;93508.00;;;;7401457;19;20133;-77
2023/04/21 04:50:06;;;;;;;20.53;10.47;;;1.80;1.00;2.60;93494.00;;;;7402242;19;20125;-78
2023/04/21 04:52:39;;;;;;;15.40;9.10;;;1.80;1.00;2.70;93514.00;;;;7400266;19;20467;-79
2023/04/21 04:55:07;;;;;;;15.00;8.93;;;1.90;1.00;2.70;93511.00;;;;7399851;19;20235;-78
2023/04/21 04:57:41;;;;;;;14.50;8.47;;;2.00;1.00;2.80;93530.00;;;;7396050;19;20149;-79
2023/04/21 05:00:15;;;;;;;12.17;7.33;;;2.00;1.00;2.60;93522.00;;;;7399829;19;20132;-78
2023/04/21 05:02:48;;;;;;;14.87;8.53;;;2.10;1.00;2.90;93513.00;;;;7397672;19;20162;-79
2023/04/21 05:05:25;;;;;;;12.37;7.97;;;2.10;1.00;3.00;93469.00;;;;7398171;19;20623;-78
2023/04/21 05:07:59;;;;;;;15.07;8.90;;;2.10;1.00;2.90;93540.00;;;;7397102;19;20630;-78
2023/04/21 05:10:32;;;;;;;13.43;8.40;;;2.20;1.00;3.10;93524.00;;;;7397422;19;20136;-77
2023/04/21 05:13:16;;;;;;;14.17;8.30;;;2.20;1.00;3.10;93522.00;;;;7397987;19;20216;-77
2023/04/21 05:15:43;;;;;;;15.17;8.77;;;2.30;1.00;3.00;93540.00;;;;7399643;19;20137;-78
2023/04/21 05:18:17;;;;;;;15.07;8.17;;;2.20;1.00;3.00;93515.00;;;;7400503;19;20200;-77
2023/04/21 05:20:45;;;;;;;16.20;9.03;;;2.30;1.00;3.10;93529.00;;;;7383155;19;20145;-77
2023/04/21 05:23:21;;;;;;;18.97;9.03;;;2.30;99.90;3.10;93542.00;;;;7397603;19;20163;-76
2023/04/21 05:25:55;;;;;;;16.17;9.77;;;2.30;99.90;3.00;93529.00;;;;7395355;19;20156;-77
2023/04/21 05:28:24;;;;;;;16.30;8.67;;;2.40;99.90;3.20;93550.00;;;;7400925;19;20121;-77
2023/04/21 05:30:59;;;;;;;18.07;8.87;;;2.40;99.90;3.30;93529.00;;;;7401143;19;20200;-77
2023/04/21 05:33:30;;;;;;;13.40;8.20;;;2.40;99.90;3.40;93559.00;;;;7399084;19;20121;-76
2023/04/21 05:36:10;;;;;;;13.47;8.43;;;2.50;99.90;3.40;93561.00;;;;7399158;19;20139;-76
2023/04/21 05:38:39;;;;;;;15.10;8.80;;;2.50;99.90;3.70;93560.00;;;;7399791;19;20129;-76
2023/04/21 05:41:13;;;;;;;16.47;9.30;;;2.60;99.90;3.70;93557.00;;;;7400205;19;20128;-77
2023/04/21 05:43:50;;;;;;;13.50;8.87;;;2.70;99.90;3.80;93550.00;;;;7396410;19;20132;-79
2023/04/21 05:46:23;;;;;;;20.23;9.73;;;2.80;99.90;3.90;93556.00;;;;7397369;19;20128;-76
2023/04/21 05:48:58;;;;;;;13.90;8.67;;;2.90;99.90;4.10;93519.00;;;;7399748;19;20596;-76
2023/04/21 05:51:32;;;;;;;12.60;8.33;;;3.00;99.90;4.30;93499.00;;;;7398112;19;21820;-79
2023/04/21 05:53:59;;;;;;;13.80;9.10;;;3.10;99.90;4.30;93510.00;;;;7395007;19;20706;-78
2023/04/21 05:56:33;;;;;;;12.90;8.40;;;3.20;99.90;4.60;93554.00;;;;7399222;19;20639;-75
2023/04/21 05:59:07;;;;;;;13.77;9.07;;;3.30;99.90;4.90;93558.00;;;;7394667;19;20180;-78
2023/04/21 06:01:35;;;;;;;14.30;8.73;;;3.60;85.20;5.20;93554.00;;;;7395400;19;20492;-78
2023/04/21 06:04:09;;;;;;;11.93;8.30;;;3.70;30.40;5.60;93544.00;;;;7395910;19;20121;-78
2023/04/21 06:06:43;;;;;;;13.87;8.87;;;3.90;1.00;5.60;93574.00;;;;7392656;19;20132;-77
2023/04/21 06:09:14;;;;;;;14.13;9.00;;;4.10;44.50;5.60;93567.00;;;;7396958;19;20450;-77
2023/04/21 06:11:56;;;;;;;11.63;8.17;;;4.20;99.90;5.70;93572.00;;;;7398354;19;20136;-75
2023/04/21 06:14:30;;;;;;;12.37;8.00;;;4.10;1.00;5.50;93526.00;;;;7398059;19;20132;-76
2023/04/21 06:17:17;;;;;;;14.43;8.83;;;4.20;1.00;5.60;93580.00;;;;7391375;19;20140;-76
2023/04/21 06:19:54;;;;;;;12.07;8.33;;;4.20;1.00;5.30;93576.00;;;;7398429;19;20124;-77
2023/04/21 06:22:29;;;;;;;14.17;8.23;;;4.10;1.00;4.90;93580.00;;;;7397904;19;20610;-77
2023/04/21 06:24:57;;;;;;;9.67;6.93;;;4.00;99.90;4.80;93527.00;;;;7392832;19;20537;-76
2023/04/21 06:27:24;;;;;;;14.40;7.60;;;3.80;99.90;4.70;93568.00;;;;7398716;19;20129;-76
2023/04/21 06:29:59;;;;;;;11.43;7.63;;;3.60;99.90;5.10;93569.00;;;;7398734;19;20139;-76
2023/04/21 06:32:26;;;;;;;11.03;7.83;;;3.60;99.90;5.80;93547.00;;;;7396509;19;20148;-77
2023/04/21 06:35:02;;;;;;;11.43;7.70;;;3.80;1.00;6.60;93559.00;;;;7396414;19;20133;-76
2023/04/21 06:37:38;;;;;;;12.97;7.50;;;4.10;1.00;7.40;93569.00;;;;7398578;19;20599;-76
2023/04/21 06:40:15;;;;;;;9.30;7.33;;;4.40;1.00;7.70;93541.00;;;;7397389;19;21089;-78
2023/04/21 06:42:49;;;;;;;10.90;6.40;;;4.60;1.00;7.90;93552.00;;;;7396545;19;20176;-75
2023/04/21 06:45:16;;;;;;;7.97;5.87;;;4.70;1.00;8.40;93563.00;;;;7395498;19;20463;-77
2023/04/21 06:47:51;;;;;;;6.70;5.47;;;4.90;99.90;8.60;93552.00;;;;7396601;19;20148;-76
2023/04/21 06:50:27;;;;;;;8.43;6.23;;;5.00;87.20;8.40;93540.00;;;;7397040;19;20591;-77
2023/04/21 06:53:02;;;;;;;7.50;5.27;;;5.20;1.00;8.50;93555.00;;;;7396867;19;20175;-77
2023/04/21 06:55:36;;;;;;;7.40;5.40;;;5.40;1.00;8.40;93550.00;;;;7395866;19;20156;-76
2023/04/21 06:58:04;;;;;;;6.57;4.60;;;5.40;99.90;8.60;93533.00;;;;7392767;19;20168;-75
2023/04/21 07:00:39;;;;;;;5.60;4.63;;;5.60;99.90;8.20;93550.00;;;;7394821;19;20129;-75
2023/04/21 07:03:06;;;;;;;7.60;4.83;;;5.60;99.90;7.50;93539.00;;;;7395406;19;20595;-75
2023/04/21 07:05:42;;;;;;;8.43;4.53;;;5.60;99.90;7.70;93554.00;;;;7393932;19;20133;-74
2023/04/21 07:08:10;;;;;;;4.30;3.70;;;5.80;1.00;8.00;93535.00;;;;7394948;19;20744;-75
2023/04/21 07:10:44;;;;;;;4.93;4.10;;;6.00;99.90;8.20;93544.00;;;;7394145;19;20483;-75
2023/04/21 07:13:18;;;;;;;6.60;4.40;;;6.40;99.90;8.70;93534.00;;;;7393368;19;20149;-74
2023/04/21 07:16:00;;;;;;;5.38;3.75;;;6.50;1.00;8.50;93549.00;;;;7393274;19;20580;-76
2023/04/21 07:18:34;;;;;;;5.10;3.97;;;6.70;1.00;8.20;93540.00;;;;7393617;19;20148;-75
2023/04/21 07:21:01;;;;;;;5.77;4.03;;;6.70;99.90;8.90;93557.00;;;;7394017;19;20157;-75
2023/04/21 07:23:36;;;;;;;5.53;3.85;;;6.80;99.90;8.60;93553.00;;;;7397182;19;20140;-75
2023/04/21 07:26:03;;;;;;;4.72;4.00;;;6.90;99.90;8.50;93549.00;;;;7391701;19;20478;-76
2023/04/21 07:28:39;;;;;;;5.28;3.97;;;6.90;1.00;9.00;93524.00;;;;7395702;19;20615;-75
2023/04/21 07:31:06;;;;;;;4.70;4.15;;;7.20;99.90;10.20;93535.00;;;;7393698;19;20132;-76
2023/04/21 07:33:43;;;;;;;5.15;4.22;;;7.70;99.90;10.70;93552.00;;;;7395844;19;20113;-75
2023/04/21 07:36:11;;;;;;;5.88;4.15;;;8.40;1.00;10.80;93548.00;;;;7395013;19;20481;-76
2023/04/21 07:38:46;;;;;;;4.93;3.60;;;8.70;1.00;11.10;93541.00;;;;7395720;19;20133;-76
2023/04/21 07:41:20;;;;;;;4.60;4.10;;;9.00;1.00;11.40;93559.00;;;;7395403;19;20135;-76
2023/04/21 07:43:54;;;;;;;4.55;4.05;;;9.10;1.00;11.60;93546.00;;;;7396667;19;20132;-74
2023/04/21 07:46:24;;;;;;;5.00;3.78;;;9.10;99.90;11.30;93560.00;;;;7392362;19;20149;-75
2023/04/21 07:48:59;;;;;;;4.90;4.40;;;9.00;99.90;11.60;93557.00;;;;7395288;19;20503;-77
2023/04/21 07:51:33;;;;;;;4.50;3.78;;;8.90;99.90;11.40;93560.00;;;;7390188;19;20150;-76
2023/04/21 07:54:07;;;;;;;5.47;3.83;;;8.80;99.90;12.30;93544.00;;;;7394065;19;20161;-76
2023/04/21 07:56:34;;;;;;;4.30;3.80;;;8.80;99.90;12.40;93546.00;;;;7391886;19;20238;-76
2023/04/21 07:59:08;;;;;;;4.63;3.55;;;9.00;99.90;12.00;93546.00;;;;7388614;19;20207;-75
2023/04/21 08:01:35;;;;;;;4.85;3.65;;;9.10;99.90;12.30;93546.00;;;;7391190;19;20125;-77
2023/04/21 08:04:09;;;;;;;3.78;3.38;;;9.30;1.00;12.50;93522.00;;;;7399650;19;20128;-77
2023/04/21 08:06:36;;;;;;;4.32;3.45;;;9.30;1.00;12.90;93547.00;;;;7399696;19;20149;-76
2023/04/21 08:09:11;;;;;;;4.25;3.80;;;9.30;1.00;12.30;93540.00;;;;7394151;19;20464;-76
2023/04/21 08:11:38;;;;;;;4.80;4.22;;;9.50;1.00;12.30;93529.00;;;;7397029;19;20166;-74
2023/04/21 08:14:19;;;;;;;5.60;3.30;;;9.60;1.00;13.30;93521.00;;;;7396526;19;20136;-76
2023/04/21 08:16:47;;;;;;;4.55;4.15;;;9.90;1.00;12.90;93544.00;;;;7396808;19;20148;-76
2023/04/21 08:19:24;;;;;;;5.90;4.32;;;10.20;1.00;13.00;93534.00;;;;7397314;19;20128;-78
2023/04/21 08:21:52;;;;;;;4.97;4.10;;;10.30;1.00;13.60;93528.00;;;;7395701;19;20477;-77
2023/04/21 08:24:26;;;;;;;5.00;3.75;;;10.30;1.00;13.90;93506.00;;;;7398654;19;20470;-76
2023/04/21 08:26:53;;;;;;;3.97;3.58;;;10.50;1.00;14.40;93521.00;;;;7392754;19;20513;-76
2023/04/21 08:29:30;;;;;;;4.47;4.07;;;10.80;1.00;14.90;93530.00;;;;7397043;19;20479;-78
2023/04/21 08:32:04;;;;;;;3.97;3.40;;;11.10;99.90;15.30;93529.00;;;;7397637;19;20155;-77
2023/04/21 08:34:38;;;;;;;4.43;3.67;;;11.40;99.90;15.70;93519.00;;;;7398668;19;20133;-76
2023/04/21 08:37:06;;;;;;;4.22;3.75;;;11.60;99.90;15.60;93525.00;;;;7398860;19;20136;-77
2023/04/21 08:39:40;;;;;;;5.75;3.88;;;11.50;99.90;15.80;93485.00;;;;7399864;19;20152;-75
2023/04/21 08:42:17;;;;;;;5.53;4.13;;;11.50;99.90;15.10;93526.00;;;;7399116;19;20602;-76
2023/04/21 08:44:51;;;;;;;4.20;3.80;;;11.60;99.90;16.00;93518.00;;;;7397736;19;20607;-76
2023/04/21 08:47:21;;;;;;;5.60;3.80;;;11.90;99.90;16.60;93519.00;;;;7396116;19;20152;-77
2023/04/21 08:49:56;;;;;;;3.38;3.08;;;12.10;99.90;16.90;93514.00;;;;7398356;19;20129;-78
2023/04/21 08:52:30;;;;;;;4.03;3.63;;;12.30;99.90;16.80;93509.00;;;;7399718;19;20156;-77
2023/04/21 08:54:58;;;;;;;4.30;3.90;;;12.40;99.90;16.40;93511.00;;;;7396399;19;20216;-76
2023/04/21 08:57:34;;;;;;;4.38;3.30;;;12.60;74.10;16.20;93508.00;;;;7392583;19;20160;-78
2023/04/21 09:00:09;;;;;;;4.82;3.58;;;12.80;48.90;15.20;93530.00;;;;7394911;19;20145;-76
2023/04/21 09:03:00;;;;;;;4.18;3.17;;;12.90;15.70;16.10;93499.00;;;;7396149;19;21882;-76
2023/04/21 09:06:01;;;;;;;3.90;3.20;;;12.80;30.20;15.90;93521.00;;;;7394860;19;20163;-77
2023/04/21 09:08:41;;;;;;;6.40;4.15;;;12.90;99.90;16.60;93520.00;;;;7397010;19;20737;-76
2023/04/21 09:11:22;;;;;;;3.97;2.97;;;13.10;7.30;15.90;93519.00;;;;7394790;19;20116;-76
2023/04/21 09:13:57;;;;;;;3.20;2.90;;;13.30;50.00;15.70;93510.00;;;;7391017;19;20152;-76
2023/04/21 09:16:34;;;;;;;3.70;3.30;;;13.30;1.00;16.60;93511.00;;;;7393600;19;20173;-77
2023/04/21 09:19:02;;;;;;;3.90;2.83;;;13.20;1.00;16.70;93514.00;;;;7396323;19;20220;-76
2023/04/21 09:21:36;;;;;;;3.55;3.25;;;13.20;1.00;16.90;93520.00;;;;7393534;19;20149;-75
2023/04/21 09:24:05;;;;;;;3.72;2.92;;;13.20;1.00;17.00;93504.00;;;;7394945;19;20581;-77
2023/04/21 09:26:41;;;;;;;4.45;3.58;;;13.30;1.00;16.50;93514.00;;;;7394493;19;20223;-76
2023/04/21 09:29:16;;;;;;;3.30;3.00;;;13.30;1.00;16.20;93533.00;;;;7391527;19;20121;-75
2023/04/21 09:31:51;;;;;;;3.83;3.42;;;13.30;1.00;16.30;93528.00;;;;7395478;19;20133;-76
2023/04/21 09:34:26;;;;;;;4.55;3.15;;;13.30;1.00;15.70;93528.00;;;;7396313;19;20144;-75
2023/04/21 09:37:03;;;;;;;4.32;3.42;;;13.60;7.20;16.40;93523.00;;;;7395174;19;20136;-75
2023/04/21 09:39:37;;;;;;;4.20;3.33;;;13.90;1.00;16.20;93531.00;;;;7395702;19;20161;-76
2023/04/21 09:42:32;;;;;;;4.00;3.30;;;14.10;1.00;16.30;93518.00;;;;7393981;19;20148;-75
2023/04/21 09:45:09;;;;;;;3.85;3.20;;;13.90;1.00;16.20;93521.00;;;;7388210;19;20643;-75
2023/04/21 09:48:02;;;;;;;6.30;3.75;;;14.10;1.00;16.20;93513.00;;;;7390213;19;20149;-76
2023/04/21 09:50:36;;;;;;;3.28;2.83;;;14.00;1.00;15.70;93524.00;;;;7393926;19;20216;-74
2023/04/21 09:53:12;;;;;;;3.22;2.92;;;14.10;1.00;16.20;93508.00;;;;7392786;19;20154;-74
2023/04/21 09:55:50;;;;;;;3.40;3.10;;;14.30;1.00;16.50;93520.00;;;;7393026;19;20174;-75
2023/04/21 09:58:31;;;;;;;4.30;3.17;;;14.40;1.00;17.40;93520.00;;;;7388297;19;20151;-76
2023/04/21 10:01:06;;;;;;;4.18;3.05;;;14.80;1.00;17.40;93501.00;;;;7391312;19;20220;-75
2023/04/21 10:03:44;;;;;;;4.25;3.42;;;15.10;1.00;17.70;93512.00;;;;7390705;19;20148;-75
2023/04/21 10:06:12;;;;;;;4.32;2.97;;;15.00;1.00;17.30;93502.00;;;;7388141;19;20477;-74
2023/04/21 10:08:49;;;;;;;3.20;2.90;;;15.20;1.00;17.70;93512.00;;;;7393281;19;20132;-76
2023/04/21 10:11:17;;;;;;;3.38;3.08;;;15.40;1.00;18.20;93479.00;;;;7392939;19;20152;-75
2023/04/21 10:13:57;;;;;;;4.82;2.97;;;15.80;1.00;18.90;93496.00;;;;7391012;19;20147;-75
2023/04/21 10:16:36;;;;;;;4.95;3.30;;;16.20;1.00;18.50;93495.00;;;;7391237;19;20129;-75
2023/04/21 10:19:26;;;;;;;3.50;3.20;;;16.60;1.00;18.90;93500.00;;;;7391781;19;20153;-72
2023/04/21 10:21:57;;;;;;;7.65;2.92;;;16.80;1.00;18.60;93506.00;;;;7392693;19;20148;-75
2023/04/21 10:24:38;;;;;;;3.67;3.00;;;17.00;1.00;19.10;93504.00;;;;7391435;19;20664;-73
2023/04/21 10:27:30;;;;;;;3.10;2.63;;;16.80;1.00;18.70;93510.00;;;;7385799;19;20545;-73
2023/04/21 10:29:58;;;;;;;3.60;2.40;;;16.80;1.00;19.30;93497.00;;;;7391515;19;20157;-73
2023/04/21 10:32:44;;;;;;;3.20;2.90;;;16.60;1.00;19.10;93504.00;;;;7394343;19;20587;-75
2023/04/21 10:35:22;;;;;;;3.08;2.78;;;16.50;1.00;18.90;93504.00;;;;7391595;19;20158;-75
2023/04/21 10:37:58;;;;;;;4.07;2.50;;;16.70;1.00;18.90;93500.00;;;;7389426;19;20215;-76
2023/04/21 10:40:35;;;;;;;3.58;3.25;;;17.10;1.00;19.50;93499.00;;;;7391962;19;20152;-75
2023/04/21 10:43:46;;;;;;;3.22;2.92;;;17.40;1.00;20.10;93498.00;;;;7392622;19;20135;-75
2023/04/21 10:46:52;;;;;;;3.30;2.75;;;17.60;1.00;19.40;93492.00;;;;7389073;19;20232;-77
2023/04/21 10:49:29;;;;;;;3.28;2.88;;;17.60;1.00;19.00;93485.00;;;;7388955;19;20140;-77
2023/04/21 10:51:59;;;;;;;3.65;3.17;;;17.80;1.00;19.50;93500.00;;;;7392685;19;20136;-77
2023/04/21 10:54:44;;;;;;;6.10;3.40;;;17.80;1.00;20.40;93490.00;;;;7390670;19;20128;-76
2023/04/21 10:57:15;;;;;;;5.28;3.60;;;18.00;1.00;21.20;93491.00;;;;7386336;19;20149;-75
2023/04/21 10:59:55;;;;;;;3.40;3.10;;;18.30;1.00;21.10;93481.00;;;;7389982;19;20144;-75
2023/04/21 11:02:29;;;;;;;9.73;3.00;;;18.60;1.00;20.30;93433.00;;;;7389628;19;20200;-75
2023/04/21 11:05:09;;;;;;;5.30;2.47;;;18.90;1.00;20.50;93467.00;;;;7390106;19;20446;-76
2023/04/21 11:07:42;;;;;;;4.75;2.85;;;18.60;1.00;20.00;93495.00;;;;7388573;19;20631;-76
2023/04/21 11:10:18;;;;;;;3.15;2.85;;;18.60;1.00;20.50;93465.00;;;;7382414;19;20819;-77
2023/04/21 11:13:03;;;;;;;3.03;2.67;;;18.70;1.00;21.60;93474.00;;;;7384323;19;20510;-78
2023/04/21 11:15:31;;;;;;;3.90;2.60;;;19.20;1.00;22.30;93469.00;;;;7381193;19;20140;-78
2023/04/21 11:18:06;;;;;;;4.40;2.70;;;19.60;1.00;22.10;93454.00;;;;7384645;19;20155;-76
2023/04/21 11:20:33;;;;;;;3.08;2.67;;;19.40;1.00;21.70;93473.00;;;;7383044;19;20681;-76
2023/04/21 11:23:06;;;;;;;4.25;2.63;;;19.20;1.00;22.00;93457.00;;;;7386331;19;20161;-79
2023/04/21 11:25:45;;;;;;;5.00;2.88;;;19.20;1.00;22.10;93474.00;;;;7384464;19;20165;-76
2023/04/21 11:28:21;;;;;;;3.53;2.65;;;19.00;1.00;22.10;93467.00;;;;7383261;19;20121;-78
2023/04/21 11:30:54;;;;;;;2.72;2.53;;;19.50;1.00;22.20;93474.00;;;;7383529;19;20173;-78